• Join FlightAware (Why Join?)
  • Login
  • US Flag 
10:57AM EDT


 

Airport Tracker/Info


-or-


 

Live Flight TrackerFlight Track Log ✈ N6711L ✈ 09-Dec-2013 ✈ KCRG - KAPF

Flight Track Log - Related Links

Times and Time Zones

All times are in EST time to prevent confusion due to time zone crossing. See the N6711L flight status page for this flight to view local times or setup timezone preferences in your user account.

Time Position Orientation Groundspeed Altitude Reporting Facility
EST Latitude Longitude Course Direction KTS MPH feet Rate Location/Type
05:55PM 30.3319 -81.5086 167° South 120 138 300  Level Jacksonville Center
05:56PM 30.3069 -81.5019 167° South 109 125 1,500 1,200 Climbing Jacksonville Center
05:57PM 30.3094 -81.5331 275° West 109 125 2,700 1,200 Climbing Jacksonville Center
05:58PM 30.3075 -81.5619 266° West 101 116 4,000 1,200 Climbing Jacksonville Center
05:58PM 30.2869 -81.5744 208° Southwest 99 114 5,000 900 Climbing Jacksonville Center
06:00PM 30.2453 -81.5894 197° South 127 146 6,000 840 Climbing Jacksonville Center
06:01PM 30.2203 -81.6017 203° Southwest 126 145 6,800 600 Climbing Jacksonville Center
06:02PM 30.1808 -81.6142 195° South 161 185 7,100 120 Climbing Jacksonville Center
06:03PM 30.1350 -81.6292 196° South 163 188 7,100  Level Jacksonville Center
06:04PM 30.0892 -81.6442 196° South 172 198 7,100  Level Jacksonville Center
06:05PM 30.0497 -81.6592 198° South 166 191 7,100  Level Jacksonville Center
06:06PM 30.0039 -81.6742 196° South 169 194 7,100  Level Jacksonville Center
06:07PM 29.9539 -81.6939 199° South 167 192 7,100  Level Jacksonville Center
06:08PM 29.9019 -81.7067 192° South 167 192 7,100  Level Jacksonville Center
06:09PM 29.8583 -81.7239 199° South 168 193 7,100  Level Jacksonville Center
06:10PM 29.8103 -81.7411 197° South 169 194 7,100  Level Jacksonville Center
06:11PM 29.7686 -81.7536 195° South 168 193 7,100  Level Jacksonville Center
06:12PM 29.7231 -81.7708 198° South 167 192 7,100  Level Jacksonville Center
06:13PM 29.6750 -81.7858 195° South 167 192 7,100  Level Jacksonville Center
06:14PM 29.6314 -81.8031 199° South 168 193 7,100  Level Jacksonville Center
06:15PM 29.5875 -81.8156 194° South 167 192 7,100  Level Jacksonville Center
06:16PM 29.5419 -81.8350 200° South 169 194 7,100  Level Jacksonville Center
06:17PM 29.4961 -81.8475 193° South 168 193 7,100  Level Jacksonville Center
06:18PM 29.4544 -81.8622 197° South 171 197 7,100  Level Jacksonville Center
06:19PM 29.4128 -81.8769 197° South 170 196 7,100  Level Jacksonville Center
06:20PM 29.3628 -81.8942 197° South 171 197 7,100  Level Jacksonville Center
06:21PM 29.3108 -81.9114 196° South 168 193 7,100  Level Jacksonville Center
06:22PM 29.2650 -81.9286 198° South 171 197 7,100  Level Jacksonville Center
06:23PM 29.2233 -81.9433 197° South 168 193 7,100  Level Jacksonville Center
06:24PM 29.1733 -81.9581 194° South 169 194 7,100  Level Jacksonville Center
06:25PM 29.1275 -81.9750 198° South 169 194 7,100  Level Jacksonville Center
06:26PM 29.0797 -81.9897 195° South 168 193 7,100  Level Jacksonville Center
06:27PM 29.0381 -82.0044 197° South 167 192 7,200  Climbing Jacksonville Center
06:28PM 28.9983 -82.0167 195° South 169 194 7,200  Level Jacksonville Center
06:29PM 28.9464 -82.0361 198° South 167 192 7,200  Level Jacksonville Center
06:30PM 28.8964 -82.0506 194° South 169 194 7,200  Level Jacksonville Center
06:31PM 28.8486 -82.0678 198° South 170 196 7,200  Level Jacksonville Center
06:33PM 28.7500 -82.1000 196° South 166 191 7,200  Level Tampa TRACON
06:34PM 28.7167 -82.1167 204° Southwest 166 191 7,200  Level Tampa TRACON
06:35PM 28.6667 -82.1333 196° South 169 194 7,200  Level Tampa TRACON
06:36PM 28.6167 -82.1333 180° South 177 204 7,200  Level Tampa TRACON
06:37PM 28.5667 -82.1167 164° South 176 203 7,200  Level Tampa TRACON
06:38PM 28.5167 -82.1167 180° South 174 200 7,200  Level Tampa TRACON
06:39PM 28.4667 -82.1000 164° South 173 199 7,200  Level Tampa TRACON
06:40PM 28.4333 -82.1000 180° South 174 200 7,200  Level Tampa TRACON
06:41PM 28.3833 -82.0833 164° South 175 201 7,200  Level Tampa TRACON
06:42PM 28.3333 -82.0833 180° South 177 204 7,200  Level Tampa TRACON
06:43PM 28.2833 -82.0667 164° South 176 203 7,200  Level Tampa TRACON
06:44PM 28.2333 -82.0667 180° South 174 200 7,200  Level Tampa TRACON
06:45PM 28.1833 -82.0500 164° South 175 201 7,200  Level Tampa TRACON
06:46PM 28.1333 -82.0500 180° South 175 201 7,200  Level Tampa TRACON
06:47PM 28.1000 -82.0333 156° South 175 201 7,200  Level Tampa TRACON
06:49PM 27.9994 -82.0181 172° South 158 182 7,200  Level Miami Center
06:50PM 27.9497 -82.0017 164° South 170 196 7,200  Level Miami Center
06:51PM 27.9025 -81.9831 161° South 177 204 7,200  Level Miami Center
06:52PM 27.8572 -81.9647 160° South 182 209 7,200  Level Miami Center
06:53PM 27.8100 -81.9461 161° South 182 209 7,200  Level Miami Center
06:54PM 27.7628 -81.9228 156° South 182 209 7,200  Level Miami Center
06:55PM 27.7153 -81.9067 163° South 182 209 7,200  Level Miami Center
06:56PM 27.6722 -81.8883 159° South 182 209 7,200  Level Miami Center
06:57PM 27.6247 -81.8700 161° South 182 209 7,200  Level Miami Center
06:58PM 27.5733 -81.8489 160° South 182 209 7,200  Level Miami Center
06:59PM 27.5300 -81.8331 162° South 187 215 7,200  Level Miami Center
07:00PM 27.4806 -81.8144 162° South 187 215 7,200  Level Miami Center
07:01PM 27.4333 -81.7961 161° South 182 209 7,200  Level Miami Center
07:02PM 27.3839 -81.7775 162° South 182 209 7,200  Level Miami Center
07:03PM 27.3364 -81.7592 161° South 182 209 7,200  Level Miami Center
07:04PM 27.2892 -81.7408 161° South 182 209 7,200  Level Miami Center
07:05PM 27.2417 -81.7247 163° South 182 209 7,200  Level Miami Center
07:06PM 27.1953 -81.7322 188° South 182 209 7,200 -60 Level Miami Center
07:07PM 27.1472 -81.7347 183° South 177 204 7,100  Descending Miami Center
07:08PM 27.0992 -81.7375 183° South 177 204 7,200  Climbing Miami Center
07:09PM 27.0511 -81.7378 180° South 177 204 7,200  Level Miami Center
07:10PM 27.0053 -81.7381 180° South 177 204 7,200  Level Miami Center
07:11PM 26.9592 -81.7408 183° South 177 204 7,200  Level Miami Center
07:12PM 26.9111 -81.7436 183° South 177 204 7,200  Level Miami Center
07:14PM 26.8554 -81.7358 173° South  Level FlightAware Approximate
07:21PM 26.5412 -81.7536 193° South  Level Estimated
07:22PM 26.5002 -81.7333 156° South  Level FlightAware Approximate
07:23PM 26.4555 -81.7387 187° South  Level Estimated
07:24PM 26.4106 -81.7410 183° South  Level FlightAware Approximate
07:25PM 26.3657 -81.7433 183° South  Level FlightAware Approximate
07:26PM 26.3208 -81.7456 183° South  Level FlightAware Approximate
07:27PM 26.2759 -81.7478 183° South  Level FlightAware Approximate
07:28PM 26.2319 -81.7578 190° South  Level Estimated
07:29PM 26.1872 -81.7626 186° South  Level FlightAware Approximate
07:30PM 26.1500 -81.7667 190° South  Level FlightAware Approximate
07:31PM 26.1524 -81.7756 190° South  Level Estimated
07:32PM 26.1524 -81.7756 190° South  Level Estimated
07:33PM 26.1524 -81.7756 190° South  Level Estimated
07:34PM 26.1524 -81.7756 190° South  Level Estimated
07:35PM 26.1524 -81.7756 190° South  Level Estimated
07:36PM 26.1524 -81.7756 190° South  Level Estimated
07:37PM 26.1524 -81.7756 190° South  Level Estimated
07:38PM 26.1524 -81.7756 190° South  Level Estimated
07:39PM 26.1524 -81.7756 190° South  Level Estimated
07:40PM 26.1524 -81.7756 190° South  Level Estimated